ADDS METAR Data INFO
IDs: Format: Raw Decoded Include TAF

Data at: 1407 UTC 24 Feb 2018

KMSS 241353Z AUTO 29012KT 10SM FEW021 FEW027 OVC048 04/01 A3019 RMK AO2 SLP228 T00390006
KMSS 241253Z AUTO 26009KT 10SM SCT050 04/01 A3016 RMK AO2 SLP220 T00390011
KMSS 241153Z AUTO 25009KT 10SM OVC047 04/02 A3014 RMK AO2 SLP210 60000 70010 T00390017 10056 20039 53018
KMSS 241053Z AUTO 25009KT 10SM FEW030 FEW035 OVC047 04/02 A3012 RMK AO2 RAB01E21 SLP203 P0000 T00440022
KMSS 241039Z AUTO 25009KT 10SM SCT025 OVC047 04/02 A3011 RMK AO2 RAB01E21 P0000 T00440022
KMSS 241014Z AUTO 27005KT 10SM -RA FEW019 BKN024 OVC044 04/03 A3010 RMK AO2 RAB01 P0000 T00390028
KMSS 240953Z AUTO 23007KT 10SM FEW034 OVC044 04/03 A3009 RMK AO2 RAB0855E07 SLP194 P0000 T00440028
KMSS 240853Z AUTO 24008KT 10SM FEW029 BKN039 OVC046 04/03 A3008 RMK AO2 SLP192 T00440033 51016
KMSS 240753Z AUTO 23011KT 10SM OVC045 04/03 A3007 RMK AO2 SLP188 T00440028
KMSS 240653Z AUTO 23009G18KT 10SM BKN045 04/04 A3006 RMK AO2 SLP184 T00440039
KMSS 240553Z AUTO 23009KT 10SM OVC039 06/05 A3004 RMK AO2 SLP176 60001 I6001 T00560050 10056 20000 53013
KMSS 240523Z AUTO 23012KT 10SM SCT009 OVC038 06/05 A3003 RMK AO2 T00560050
KMSS 240453Z AUTO 24010KT 10SM BKN008 OVC038 06/05 A3002 RMK AO2 CIG 006V012 SLP169 T00560050 400561089
KMSS 240353Z AUTO 24010KT 5SM BR OVC005 05/05 A3001 RMK AO2 RAB13E40 SLP166 P0000 T00500050
KMSS 240253Z AUTO 27004KT 10SM OVC006 03/03 A3000 RMK AO2 RAE42 SLP164 P0000 60001 I3001 T00280028 55009
KMSS 240153Z AUTO 00000KT 4SM -RA BR BKN009 OVC013 01/01 A2999 RMK AO2 RAB44 SLP160 P0000 I1001 T00060006
KMSS 240134Z AUTO 00000KT 4SM BR SCT003 OVC012 01/01 A2998 RMK AO2 I1001 T00060006
KMSS 240123Z AUTO 18003KT 3SM BR BKN003 OVC012 01/01 A2999 RMK AO2 I1001 T00060006
KMSS 240116Z AUTO 00000KT 2 1/2SM BR SCT003 OVC012 01/01 A2999 RMK AO2 I1001 T00060006
KMSS 240053Z AUTO 17004KT 2 1/2SM BR OVC013 00/00 A3000 RMK AO2 UPE13 SLP166 P0001 I1000 T00000000
KMSS 240024Z AUTO 00000KT 2 1/2SM BR SCT005 OVC015 00/00 A3002 RMK AO2 UPE13 P0001 T00000000
KMSS 240015Z AUTO 00000KT 2 1/2SM BR BKN005 OVC015 00/00 A3002 RMK AO2 UPE13 P0001 T00000000
KMSS 240006Z AUTO 00000KT 2 1/2SM UP BR BKN004 OVC013 00/00 A3002 RMK AO2 P0001 T00000000
KMSS 232353Z AUTO 00000KT 4SM UP BR BKN004 OVC013 00/00 A3002 RMK AO2 UPE28B51 SLP174 P0001 60009 I6009 T00000000 10000 21017 56012
KMSS 232333Z AUTO 35003KT 4SM BR OVC003 00/00 A3003 RMK AO2 UPE28 P0001 T00000000
KMSS 232314Z AUTO 00000KT 2 1/2SM UP BR BKN004 OVC009 00/00 A3003 RMK AO2 P0001 T00000000
KMSS 232303Z AUTO 00000KT 2 1/2SM UP BR SCT004 OVC009 00/00 A3003 RMK AO2 P0001 T00000000
KMSS 232253Z AUTO 00000KT 3SM UP BR BKN003 OVC009 00/00 A3004 RMK AO2 UPB18 SLP179 P0001 T00000000
KMSS 232251Z AUTO 02003KT 3SM UP BR BKN003 OVC009 00/00 A3004 RMK AO2 UPB18 P0001
KMSS 232240Z AUTO 05003KT 2 1/2SM UP BR BKN003 OVC008 00/00 A3004 RMK AO2 UPB18 P0001 T00000000
KMSS 232227Z AUTO 07003KT 1 3/4SM UP BR BKN003 OVC008 M01/M01 A3005 RMK AO2 UPB18 P0000 T10061006
KMSS 232153Z AUTO 09003KT 3SM BR BKN004 OVC010 M01/M01 A3006 RMK AO2 UPB21E47FZRAE21 SLP187 P0003 I1002 T10061006
KMSS 232146Z AUTO 00000KT 4SM UP BR SCT004 OVC010 M01/M01 A3007 RMK AO2 UPB21FZRAE21 P0003 I1002 T10061006
KMSS 232132Z AUTO 04003KT 3SM UP BR FEW004 OVC009 M01/M01 A3008 RMK AO2 UPB21FZRAE21 P0003 I1002 T10061006
KMSS 232124Z AUTO 05003KT 2SM UP BR SCT004 OVC011 M01/M01 A3009 RMK AO2 UPB21FZRAE21 P0003 I1002 T10061006
KMSS 232053Z AUTO 03003KT 1 1/2SM -FZRA BR FEW009 OVC014 M01/M01 A3011 RMK AO2 UPE11FZRAB11 SLP205 P0004 60004 I1007 I3007 T10061011 56043
KMSS 232048Z AUTO 04004KT 1 1/2SM -FZRA BR FEW010 OVC014 M01/M01 A3012 RMK AO2 UPE11FZRAB11 P0004 I1006
KMSS 232035Z AUTO 03006KT 1 3/4SM FZRA BR OVC018 M01/M02 A3012 RMK AO2 UPE11FZRAB11 P0002 I1003 T10061017
KMSS 232017Z AUTO 02006KT 2SM -FZRA BR OVC022 M01/M03 A3012 RMK AO2 UPE11FZRAB11 P0000 I1001 T10061028
KMSS 231953Z AUTO 04006KT 10SM UP OVC024 M01/M04 A3013 RMK AO2 UPB26E36B46 SLP211 P0000 T10061044
KMSS 231938Z AUTO 06007KT 10SM OVC028 M01/M04 A3014 RMK AO2 UPB26E36 P0000 T10061044
KMSS 231853Z AUTO 06008KT 10SM OVC036 M01/M05 A3020 RMK AO2 UPE01 SLP233 P0000 T10061050
KMSS 231753Z AUTO 07012KT 10SM UP OVC043 M02/M06 A3024 RMK AO2 UPB48 SLP248 P0000 60000 T10171056 11017 21067 58087
KMSS 231653Z AUTO 07010KT 10SM OVC075 M02/M06 A3033 RMK AO2 PRESFR SLP279 T10171061
KMSS 231553Z AUTO 07008KT 10SM OVC090 M03/M07 A3043 RMK AO2 PRESFR SLP312 T10281072
KMSS 231453Z AUTO 07006KT 10SM OVC100 M04/M09 A3050 RMK AO2 SLP336 T10391089 58026
KMSS 231353Z AUTO 05006KT 10SM OVC110 M04/M08 A3053 RMK AO2 SLP346 T10441083
KMSS 231253Z AUTO 06006KT 10SM CLR M06/M08 A3056 RMK AO2 SLP357 T10561083
KMSS 231153Z AUTO 06005KT 10SM SCT110 M07/M09 A3058 RMK AO2 SLP363 I6000 T10671094 11067 21089 56028
KMSS 231053Z AUTO 07004KT 10SM CLR M07/M09 A3059 RMK AO2 SLP368 T10721089
KMSS 230953Z AUTO 07005KT 10SM BKN110 M07/M09 A3063 RMK AO2 SLP381 T10671089
KMSS 230853Z AUTO 10004KT 10SM SCT110 M08/M09 A3066 RMK AO2 PRESFR SLP391 I3000 T10831094 58018
KMSS 230753Z AUTO 00000KT 10SM CLR M09/M10 A3069 RMK AO2 SLP400 I1000 T10891100
KMSS 230653Z AUTO 00000KT 10SM CLR M09/M10 A3071 RMK AO2 SLP408 I1000 T10891100
KMSS 230553Z AUTO 04003KT 10SM CLR M09/M10 A3072 RMK AO2 SLP409 I1000 I6000 T10891100 11056 21089 58009
KMSS 230453Z AUTO 00000KT 10SM CLR M08/M10 A3075 RMK AO2 SLP420 I1000 T10831100 410111083
KMSS 230353Z AUTO 00000KT 10SM FEW120 M08/M09 A3075 RMK AO2 SLP419 I1000 T10831094
KMSS 230253Z AUTO 00000KT 10SM CLR M08/M09 A3074 RMK AO2 SLP419 T10781089 52001